createdAt,value
2023-01-15T00:01:04.952Z,14.23
2023-01-15T00:03:32.695Z,14.45
2023-01-15T00:06:03.510Z,13.98
2023-01-15T00:08:30.763Z,12.85
2023-01-15T00:10:58.067Z,15.18
2023-01-15T00:13:25.324Z,12.80
2023-01-15T00:15:52.680Z,13.65
2023-01-15T00:18:19.951Z,13.95
2023-01-15T00:20:47.187Z,13.60
2023-01-15T00:23:34.433Z,13.48
2023-01-15T00:26:20.289Z,15.52
2023-01-15T00:28:49.007Z,14.75
2023-01-15T00:31:16.913Z,15.18
2023-01-15T00:33:44.252Z,12.60
2023-01-15T00:36:11.553Z,13.75
2023-01-15T00:38:40.293Z,12.75
2023-01-15T00:41:07.589Z,13.75
2023-01-15T00:43:35.264Z,14.18
2023-01-15T00:46:05.058Z,13.25
2023-01-15T00:48:32.404Z,13.65
2023-01-15T00:50:59.718Z,13.43
2023-01-15T00:53:27.012Z,14.50
2023-01-15T00:55:54.311Z,14.23
2023-01-15T00:58:21.869Z,13.57
2023-01-15T01:00:56.931Z,14.10
2023-01-15T01:03:27.192Z,14.27
2023-01-15T01:05:59.506Z,13.27
2023-01-15T01:08:26.800Z,12.97
2023-01-15T01:11:09.909Z,13.32
2023-01-15T01:13:38.547Z,13.85
2023-01-15T01:16:20.961Z,13.50
2023-01-15T01:18:48.236Z,14.70
2023-01-15T01:21:15.658Z,17.23
2023-01-15T01:23:43.729Z,14.15
2023-01-15T01:26:10.999Z,13.38
2023-01-15T01:28:38.338Z,13.55
2023-01-15T01:31:08.205Z,14.15
2023-01-15T01:33:35.868Z,14.05
2023-01-15T01:36:03.999Z,13.32
2023-01-15T01:38:31.354Z,12.60
2023-01-15T01:40:59.334Z,14.00
2023-01-15T01:43:30.146Z,12.20
2023-01-15T01:45:57.657Z,13.38
2023-01-15T01:48:33.693Z,13.07
2023-01-15T01:51:03.117Z,12.95
2023-01-15T01:53:32.435Z,12.30
2023-01-15T01:56:00.904Z,12.93
2023-01-15T01:58:32.877Z,13.07
2023-01-15T02:01:01.401Z,13.68
2023-01-15T02:03:37.301Z,13.23
2023-01-15T02:06:08.594Z,12.10
2023-01-15T02:08:39.545Z,13.68
2023-01-15T02:11:12.560Z,13.90
2023-01-15T02:14:06.379Z,13.32
2023-01-15T02:16:43.227Z,14.00
2023-01-15T02:19:41.316Z,11.90
2023-01-15T02:22:27.423Z,13.13
2023-01-15T02:25:15.417Z,13.25
2023-01-15T02:27:47.830Z,12.60
2023-01-15T02:30:23.081Z,13.43
2023-01-15T02:33:03.726Z,15.77
2023-01-15T02:35:46.238Z,13.75
2023-01-15T02:38:18.321Z,14.37
2023-01-15T02:40:52.922Z,12.75
2023-01-15T02:43:27.258Z,13.10
2023-01-15T02:45:58.367Z,12.43
2023-01-15T02:48:29.945Z,13.05
2023-01-15T02:51:07.412Z,12.00
2023-01-15T02:53:37.865Z,11.27
2023-01-15T02:56:12.083Z,10.98
2023-01-15T02:58:48.345Z,12.43
2023-01-15T03:01:44.711Z,11.63
2023-01-15T03:04:32.166Z,12.25
2023-01-15T03:07:08.925Z,13.02
2023-01-15T03:09:39.249Z,13.82
2023-01-15T03:12:28.283Z,11.90
2023-01-15T03:15:06.053Z,13.68
2023-01-15T03:17:54.390Z,12.55
2023-01-15T03:20:27.869Z,11.05
2023-01-15T03:23:05.842Z,15.65
2023-01-15T03:25:37.887Z,13.90
2023-01-15T03:28:06.073Z,12.10
2023-01-15T03:30:34.520Z,10.70
2023-01-15T03:33:04.384Z,11.35
2023-01-15T03:35:53.293Z,12.70
2023-01-15T03:38:33.667Z,12.68
2023-01-15T03:41:30.084Z,10.18
2023-01-15T03:44:16.543Z,11.68
2023-01-15T03:46:44.010Z,11.00
2023-01-15T03:49:39.011Z,12.52
2023-01-15T03:52:35.372Z,11.32
2023-01-15T03:55:22.013Z,12.77
2023-01-15T03:58:27.371Z,13.63
2023-01-15T04:00:59.882Z,10.98
2023-01-15T04:03:30.323Z,11.35
2023-01-15T04:06:01.354Z,13.43
2023-01-15T04:08:33.880Z,11.13
2023-01-15T04:11:02.418Z,11.07
2023-01-15T04:13:38.244Z,11.63
2023-01-15T04:16:05.921Z,10.85
2023-01-15T04:18:33.261Z,12.20
2023-01-15T04:21:00.547Z,12.40
2023-01-15T04:23:29.192Z,11.60
2023-01-15T04:25:57.083Z,12.07
2023-01-15T04:28:24.354Z,10.50
2023-01-15T04:30:51.614Z,13.27
2023-01-15T04:33:18.853Z,13.77
2023-01-15T04:35:48.701Z,10.38
2023-01-15T04:38:16.078Z,13.20
2023-01-15T04:41:01.881Z,11.13
2023-01-15T04:43:47.788Z,12.52
2023-01-15T04:46:15.366Z,11.05
2023-01-15T04:48:42.646Z,10.68
2023-01-15T04:51:09.823Z,11.15
2023-01-15T04:53:37.055Z,10.82
2023-01-15T04:56:05.462Z,12.82
2023-01-15T04:58:34.164Z,9.90
2023-01-15T05:01:02.193Z,10.07
2023-01-15T05:03:31.221Z,9.95
2023-01-15T05:06:02.938Z,9.57
2023-01-15T05:08:30.645Z,12.82
2023-01-15T05:11:05.908Z,9.57
2023-01-15T05:13:33.717Z,10.48
2023-01-15T05:16:28.601Z,9.80
2023-01-15T05:19:00.386Z,11.35
2023-01-15T05:21:31.808Z,9.65
2023-01-15T05:24:01.624Z,10.60
2023-01-15T05:26:30.818Z,11.02
2023-01-15T05:29:00.133Z,10.60
2023-01-15T05:31:28.484Z,10.43
2023-01-15T05:33:56.588Z,10.40
2023-01-15T05:36:26.238Z,10.00
2023-01-15T05:38:54.823Z,10.75
2023-01-15T05:41:41.318Z,9.95
2023-01-15T05:44:12.217Z,9.88
2023-01-15T05:46:41.342Z,10.35
2023-01-15T05:49:11.834Z,9.70
2023-01-15T05:51:39.651Z,10.20
2023-01-15T05:54:09.300Z,9.05
2023-01-15T05:56:38.217Z,9.98
2023-01-15T05:59:06.152Z,10.85
2023-01-15T06:01:33.477Z,9.23
2023-01-15T06:04:02.017Z,9.18
2023-01-15T06:06:30.353Z,12.55
2023-01-15T06:08:57.843Z,9.38
2023-01-15T06:11:25.535Z,9.77
2023-01-15T06:13:52.924Z,8.70
2023-01-15T06:16:20.322Z,10.38
2023-01-15T06:19:06.565Z,8.85
2023-01-15T06:21:35.600Z,11.07
2023-01-15T06:24:03.713Z,9.88
2023-01-15T06:26:31.578Z,10.23
2023-01-15T06:28:58.959Z,9.35
2023-01-15T06:31:29.325Z,10.25
2023-01-15T06:33:56.647Z,9.57
2023-01-15T06:36:26.071Z,9.68
2023-01-15T06:38:53.649Z,7.80
2023-01-15T06:41:47.118Z,10.23
2023-01-15T06:44:35.834Z,8.25
2023-01-15T06:47:23.447Z,9.25
2023-01-15T06:49:51.242Z,9.45
2023-01-15T06:52:18.517Z,9.82
2023-01-15T06:54:45.977Z,10.95
2023-01-15T06:57:13.620Z,9.60
2023-01-15T06:59:40.932Z,9.50
2023-01-15T07:02:09.767Z,9.27
2023-01-15T07:04:37.266Z,9.48
2023-01-15T07:07:04.938Z,9.70
2023-01-15T07:09:32.202Z,9.23
2023-01-15T07:11:59.585Z,9.15
2023-01-15T07:14:31.290Z,11.75
2023-01-15T07:17:04.701Z,9.88
2023-01-15T07:19:31.883Z,9.77
2023-01-15T07:21:59.119Z,8.88
2023-01-15T07:24:26.425Z,9.40
2023-01-15T07:26:53.741Z,8.52
2023-01-15T07:29:21.571Z,8.95
2023-01-15T07:31:49.523Z,9.80
2023-01-15T07:34:17.024Z,10.48
2023-01-15T07:36:44.305Z,9.30
2023-01-15T07:39:12.140Z,10.43
2023-01-15T07:41:58.550Z,9.32
2023-01-15T07:44:44.761Z,10.13
2023-01-15T07:47:37.989Z,9.63
2023-01-15T07:50:07.778Z,8.60
2023-01-15T07:52:35.307Z,8.90
2023-01-15T07:55:03.946Z,9.23
2023-01-15T07:57:31.372Z,10.77
2023-01-15T07:59:58.566Z,9.25
2023-01-15T08:02:25.920Z,8.45
2023-01-15T08:04:53.324Z,10.27
2023-01-15T08:07:20.619Z,10.00
2023-01-15T08:09:47.966Z,8.45
2023-01-15T08:12:33.785Z,8.70
2023-01-15T08:15:13.154Z,18.35
2023-01-15T08:17:46.155Z,13.05
2023-01-15T08:20:25.683Z,12.27
2023-01-15T08:22:53.188Z,11.52
2023-01-15T08:25:23.223Z,9.75
2023-01-15T08:27:53.569Z,10.52
2023-01-15T08:30:24.058Z,9.25
2023-01-15T08:32:51.640Z,10.90
2023-01-15T08:35:19.048Z,9.32
2023-01-15T08:37:46.500Z,10.35
2023-01-15T08:40:13.857Z,12.38
2023-01-15T08:42:41.306Z,9.75
2023-01-15T08:45:09.861Z,11.15
2023-01-15T08:47:37.605Z,9.32
2023-01-15T08:50:07.648Z,8.38
2023-01-15T08:52:34.888Z,9.43
2023-01-15T08:55:02.328Z,9.25
2023-01-15T08:57:29.641Z,9.68
2023-01-15T08:59:56.886Z,13.20
2023-01-15T09:02:24.176Z,19.33
2023-01-15T09:04:52.822Z,14.02
2023-01-15T09:07:20.529Z,13.18
2023-01-15T09:09:47.866Z,14.57
2023-01-15T09:12:15.453Z,14.77
2023-01-15T09:14:58.564Z,19.15
2023-01-15T09:17:31.296Z,26.67
2023-01-15T09:19:58.563Z,30.05
2023-01-15T09:22:29.941Z,24.48
2023-01-15T09:24:57.337Z,24.80
2023-01-15T09:27:24.679Z,18.95
2023-01-15T09:29:52.139Z,22.80
2023-01-15T09:32:19.542Z,22.35
2023-01-15T09:34:46.825Z,16.08
2023-01-15T09:37:14.262Z,16.10
2023-01-15T09:39:41.515Z,34.17
2023-01-15T09:42:17.657Z,21.40
2023-01-15T09:45:10.069Z,16.00
2023-01-15T09:50:59.885Z,15.70
2023-01-15T09:53:56.222Z,16.48
2023-01-15T09:56:27.892Z,16.42
2023-01-15T09:58:58.107Z,17.48
2023-01-15T10:01:31.174Z,18.00
2023-01-15T10:06:48.194Z,19.08
2023-01-15T10:09:25.102Z,16.80
2023-01-15T10:12:16.842Z,18.70
2023-01-15T10:14:54.325Z,18.27
2023-01-15T10:17:27.225Z,31.58
2023-01-15T10:19:55.175Z,27.85
2023-01-15T10:22:22.418Z,20.52
2023-01-15T10:24:58.096Z,17.42
2023-01-15T10:27:30.142Z,16.95
2023-01-15T10:30:15.191Z,16.63
2023-01-15T10:33:01.603Z,27.90
2023-01-15T10:35:38.348Z,20.10
2023-01-15T10:38:14.039Z,18.30
2023-01-15T10:40:44.362Z,25.70
2023-01-15T10:43:42.353Z,34.47
2023-01-15T10:46:20.098Z,19.13
2023-01-15T10:48:54.130Z,18.13
2023-01-15T10:51:27.956Z,17.55
2023-01-15T10:54:14.138Z,24.55
2023-01-15T10:56:58.365Z,20.48
2023-01-15T10:59:35.635Z,18.10
2023-01-15T11:02:16.010Z,17.05
2023-01-15T11:04:45.584Z,26.67
2023-01-15T11:07:13.998Z,28.35
2023-01-15T11:09:41.927Z,20.83
2023-01-15T11:12:23.389Z,17.33
2023-01-15T11:15:09.481Z,28.38
2023-01-15T11:18:03.979Z,30.08
2023-01-15T11:20:37.112Z,22.52
2023-01-15T11:25:36.359Z,26.02
2023-01-15T11:28:06.751Z,22.52
2023-01-15T11:30:40.053Z,19.42
2023-01-15T11:33:22.553Z,19.83
2023-01-15T11:35:52.223Z,22.20
2023-01-15T11:38:23.123Z,20.38
2023-01-15T11:40:55.249Z,17.70
2023-01-15T11:43:44.176Z,18.05
2023-01-15T11:46:50.085Z,18.77
2023-01-15T11:49:40.091Z,19.33
2023-01-15T11:52:29.922Z,15.75
2023-01-15T11:55:02.674Z,17.45
2023-01-15T11:57:32.605Z,16.38
2023-01-15T12:00:00.106Z,26.02
2023-01-15T12:02:43.063Z,23.02
2023-01-15T12:05:22.452Z,17.77
2023-01-15T12:07:53.173Z,15.27
2023-01-15T12:10:44.019Z,14.83
2023-01-15T12:13:20.466Z,14.35
2023-01-15T12:15:55.237Z,15.40
2023-01-15T12:18:43.395Z,13.77
2023-01-15T12:21:35.738Z,14.00
2023-01-15T12:24:32.124Z,20.83
2023-01-15T12:27:08.560Z,14.48
2023-01-15T12:30:14.547Z,22.52
2023-01-15T12:32:46.886Z,14.07
2023-01-15T12:35:24.958Z,13.93
2023-01-15T12:38:13.697Z,19.42
2023-01-15T12:40:54.101Z,15.43
2023-01-15T12:43:44.902Z,14.38
2023-01-15T12:46:30.198Z,16.13
2023-01-15T12:49:45.184Z,17.52
2023-01-15T12:52:20.797Z,12.98
2023-01-15T12:54:55.943Z,15.60
2023-01-15T12:57:36.383Z,17.05
2023-01-15T13:00:18.986Z,17.40
2023-01-15T13:03:23.293Z,16.35
2023-01-15T13:05:55.978Z,15.55
2023-01-15T13:08:48.514Z,14.93
2023-01-15T13:11:15.878Z,14.70
2023-01-15T13:13:57.938Z,21.38
2023-01-15T13:16:37.523Z,18.88
2023-01-15T13:19:16.867Z,16.48
2023-01-15T13:21:47.574Z,14.18
2023-01-15T13:24:53.314Z,16.05
2023-01-15T13:27:55.784Z,16.90
2023-01-15T13:30:52.374Z,14.90
2023-01-15T13:33:44.421Z,14.98
2023-01-15T13:36:15.722Z,16.45
2023-01-15T13:38:47.831Z,15.52
2023-01-15T13:41:41.757Z,12.98
2023-01-15T13:44:31.371Z,14.82
2023-01-15T13:47:08.652Z,14.55
2023-01-15T13:49:39.781Z,16.92
2023-01-15T13:52:19.214Z,13.18
2023-01-15T13:54:46.619Z,14.63
2023-01-15T13:57:35.692Z,16.23
2023-01-15T14:00:26.452Z,13.85
2023-01-15T14:02:56.347Z,12.63
2023-01-15T14:05:26.733Z,14.05
2023-01-15T14:07:54.901Z,14.77
2023-01-15T14:10:34.746Z,12.65
2023-01-15T14:16:50.250Z,13.60
2023-01-15T14:22:51.544Z,13.93
2023-01-15T14:25:27.403Z,12.20
2023-01-15T14:28:24.560Z,12.50
2023-01-15T14:30:51.734Z,16.40
2023-01-15T14:33:27.938Z,14.55
2023-01-15T14:35:55.666Z,15.07
2023-01-15T14:38:27.098Z,14.48
2023-01-15T14:41:01.365Z,15.00
2023-01-15T14:43:34.867Z,19.70
2023-01-15T14:46:11.840Z,14.50
2023-01-15T14:48:39.788Z,16.20
2023-01-15T14:51:13.598Z,12.40
2023-01-15T14:53:46.389Z,14.65
2023-01-15T14:56:34.984Z,14.40
2023-01-15T14:59:15.119Z,14.98
2023-01-15T15:01:49.901Z,15.35
2023-01-15T15:04:29.121Z,15.90
2023-01-15T15:07:00.703Z,14.35
2023-01-15T15:09:44.777Z,14.02
2023-01-15T15:12:20.667Z,15.38
2023-01-15T15:14:57.776Z,16.33
2023-01-15T15:18:03.558Z,13.27
2023-01-15T15:20:36.954Z,18.27
2023-01-15T15:23:24.535Z,13.23
2023-01-15T15:26:01.102Z,13.23
2023-01-15T15:28:30.216Z,13.32
2023-01-15T15:31:02.992Z,14.52
2023-01-15T15:33:39.149Z,13.05
2023-01-15T15:36:08.841Z,13.27
2023-01-15T15:38:40.310Z,14.05
2023-01-15T15:41:12.569Z,17.55
2023-01-15T15:44:08.841Z,13.70
2023-01-15T15:46:55.150Z,12.13
2023-01-15T15:49:23.344Z,13.48
2023-01-15T15:51:52.913Z,13.45
2023-01-15T15:54:26.779Z,13.18
2023-01-15T15:57:15.506Z,15.63
2023-01-15T15:59:51.928Z,12.82
2023-01-15T16:02:31.333Z,16.85
2023-01-15T16:05:01.553Z,11.75
2023-01-15T16:07:33.767Z,12.43
2023-01-15T16:10:13.940Z,11.93
2023-01-15T16:12:57.772Z,12.93
2023-01-15T16:15:33.043Z,12.48
2023-01-15T16:18:02.411Z,12.18
2023-01-15T16:20:30.031Z,12.55
2023-01-15T16:23:00.041Z,11.80
2023-01-15T16:25:38.300Z,12.68
2023-01-15T16:28:06.162Z,16.10
2023-01-15T16:30:33.732Z,12.82
2023-01-15T16:33:05.021Z,13.25
2023-01-15T16:35:35.951Z,12.98
2023-01-15T16:38:04.948Z,12.45
2023-01-15T16:40:36.516Z,12.68
2023-01-15T16:43:08.426Z,12.65
2023-01-15T16:45:40.148Z,12.20
2023-01-15T16:48:07.297Z,13.65
2023-01-15T16:50:35.901Z,13.10
2023-01-15T16:53:05.371Z,12.93
2023-01-15T16:55:45.380Z,12.52
2023-01-15T16:58:12.776Z,11.85
2023-01-15T17:00:43.220Z,12.55
2023-01-15T17:03:34.573Z,13.23
2023-01-15T17:06:11.947Z,12.93
2023-01-15T17:08:44.258Z,12.05
2023-01-15T17:11:24.496Z,12.77
2023-01-15T17:13:52.133Z,16.73
2023-01-15T17:16:21.513Z,12.63
2023-01-15T17:18:51.350Z,11.93
2023-01-15T17:21:28.793Z,13.10
2023-01-15T17:23:57.380Z,14.27
2023-01-15T17:26:48.841Z,14.50
2023-01-15T17:29:16.119Z,13.25
2023-01-15T17:31:54.951Z,13.50
2023-01-15T17:34:27.902Z,14.70
2023-01-15T17:36:55.178Z,24.10
2023-01-15T17:39:22.612Z,24.02
2023-01-15T17:41:49.906Z,30.65
2023-01-15T17:44:17.236Z,39.45
2023-01-15T17:46:44.547Z,37.13
2023-01-15T17:49:11.819Z,41.72
2023-01-15T17:51:39.333Z,37.85
2023-01-15T17:54:06.697Z,37.35
2023-01-15T17:56:52.374Z,31.50
2023-01-15T17:59:38.041Z,33.92
2023-01-15T18:02:31.921Z,33.55
2023-01-15T18:05:17.992Z,32.65
2023-01-15T18:07:45.500Z,33.08
2023-01-15T18:10:19.170Z,30.70
2023-01-15T18:12:47.069Z,28.15
2023-01-15T18:15:16.831Z,25.42
2023-01-15T18:17:44.568Z,25.30
2023-01-15T18:20:13.067Z,29.35
2023-01-15T18:22:40.885Z,25.83
2023-01-15T18:25:10.913Z,25.73
2023-01-15T18:27:43.368Z,23.50
2023-01-15T18:30:16.148Z,23.95
2023-01-15T18:32:45.492Z,22.63
2023-01-15T18:35:13.722Z,24.00
2023-01-15T18:37:41.100Z,22.33
2023-01-15T18:40:09.795Z,21.55
2023-01-15T18:42:59.487Z,24.77
2023-01-15T18:45:45.196Z,20.77
2023-01-15T18:48:12.643Z,20.98
2023-01-15T18:50:39.894Z,19.23
2023-01-15T18:53:08.656Z,19.50
2023-01-15T18:55:35.978Z,22.60
2023-01-15T18:58:03.437Z,18.65
2023-01-15T19:00:30.864Z,17.98
2023-01-15T19:02:58.224Z,16.50
2023-01-15T19:05:25.632Z,18.88
2023-01-15T19:07:52.943Z,20.15
2023-01-15T19:10:20.266Z,19.55
2023-01-15T19:12:47.528Z,16.58
2023-01-15T19:15:37.518Z,17.98
2023-01-15T19:18:24.132Z,15.98
2023-01-15T19:20:51.380Z,17.35
2023-01-15T19:23:20.866Z,16.55
2023-01-15T19:25:51.259Z,16.70
2023-01-15T19:28:20.601Z,16.63
2023-01-15T19:31:18.932Z,15.93
2023-01-15T19:33:46.314Z,18.38
2023-01-15T19:36:13.606Z,15.30
2023-01-15T19:38:41.711Z,18.90
2023-01-15T19:41:42.132Z,16.25
2023-01-15T19:44:28.144Z,14.85
2023-01-15T19:47:14.017Z,16.00
2023-01-15T19:49:59.860Z,15.98
2023-01-15T19:52:36.872Z,18.67
2023-01-15T19:55:07.870Z,18.00
2023-01-15T19:57:35.218Z,14.85
2023-01-15T20:00:03.933Z,14.68
2023-01-15T20:02:36.732Z,15.43
2023-01-15T20:05:05.802Z,16.88
2023-01-15T20:07:33.403Z,14.68
2023-01-15T20:10:01.206Z,18.15
2023-01-15T20:12:47.223Z,18.33
2023-01-15T20:15:14.678Z,15.50
2023-01-15T20:17:42.910Z,15.63
2023-01-15T20:20:11.326Z,15.30
2023-01-15T20:22:38.829Z,14.27
2023-01-15T20:25:07.174Z,16.80
2023-01-15T20:27:37.411Z,14.20
2023-01-15T20:30:09.204Z,15.23
2023-01-15T20:32:37.852Z,16.33
2023-01-15T20:35:07.464Z,13.80
2023-01-15T20:37:36.148Z,14.30
2023-01-15T20:40:04.625Z,13.95
2023-01-15T20:42:50.698Z,15.70
2023-01-15T20:45:18.028Z,13.48
2023-01-15T20:48:05.448Z,13.52
2023-01-15T20:50:34.159Z,13.88
2023-01-15T20:53:02.283Z,15.18
2023-01-15T20:55:38.895Z,13.88
2023-01-15T20:58:13.108Z,14.00
2023-01-15T21:00:40.477Z,13.57
2023-01-15T21:03:07.887Z,15.93
2023-01-15T21:05:35.270Z,14.38
2023-01-15T21:08:03.585Z,16.13
2023-01-15T21:10:30.865Z,14.10
2023-01-15T21:12:58.174Z,14.10
2023-01-15T21:15:25.560Z,14.48
2023-01-15T21:17:52.943Z,14.13
2023-01-15T21:20:21.807Z,13.80
2023-01-15T21:22:49.333Z,13.75
2023-01-15T21:25:16.845Z,13.07
2023-01-15T21:27:44.706Z,12.60
2023-01-15T21:30:15.038Z,13.23
2023-01-15T21:32:46.454Z,12.35
2023-01-15T21:35:13.865Z,13.90
2023-01-15T21:37:41.250Z,12.85
2023-01-15T21:40:09.504Z,12.82
2023-01-15T21:42:55.722Z,13.68
2023-01-15T21:45:23.662Z,13.00
2023-01-15T21:47:53.729Z,11.55
2023-01-15T21:50:21.943Z,11.65
2023-01-15T21:52:49.350Z,12.02
2023-01-15T21:55:16.717Z,12.40
2023-01-15T21:57:44.107Z,13.35
2023-01-15T22:00:12.040Z,11.77
2023-01-15T22:02:39.263Z,12.15
2023-01-15T22:05:08.402Z,13.32
2023-01-15T22:07:35.877Z,11.60
2023-01-15T22:10:03.968Z,12.23
2023-01-15T22:12:31.985Z,11.38
2023-01-15T22:14:59.467Z,11.38
2023-01-15T22:17:26.778Z,10.55
2023-01-15T22:19:54.082Z,11.70
2023-01-15T22:22:22.882Z,11.57
2023-01-15T22:24:50.284Z,13.63
2023-01-15T22:27:18.900Z,10.68
2023-01-15T22:29:46.259Z,11.18
2023-01-15T22:32:16.191Z,10.93
2023-01-15T22:34:43.875Z,11.73
2023-01-15T22:37:13.938Z,11.43
2023-01-15T22:39:41.357Z,12.10
2023-01-15T22:42:24.399Z,11.20
2023-01-15T22:44:52.108Z,11.10
2023-01-15T22:47:20.147Z,12.32
2023-01-15T22:49:47.568Z,12.00
2023-01-15T22:52:14.891Z,12.15
2023-01-15T22:54:44.954Z,10.85
2023-01-15T22:57:13.363Z,10.80
2023-01-15T22:59:40.681Z,11.13
2023-01-15T23:02:08.918Z,11.98
2023-01-15T23:04:36.365Z,10.02
2023-01-15T23:07:03.793Z,11.45
2023-01-15T23:09:31.261Z,9.80
2023-01-15T23:11:58.612Z,10.77
2023-01-15T23:14:50.436Z,12.82
2023-01-15T23:17:17.739Z,11.05
2023-01-15T23:19:45.020Z,10.00
2023-01-15T23:22:12.279Z,12.70
2023-01-15T23:24:39.551Z,12.27
2023-01-15T23:27:06.771Z,11.10
2023-01-15T23:29:34.040Z,11.00
2023-01-15T23:32:01.297Z,10.73
2023-01-15T23:34:28.544Z,10.68
2023-01-15T23:36:55.814Z,11.20
2023-01-15T23:39:23.075Z,11.50
2023-01-15T23:42:09.008Z,10.43
2023-01-15T23:44:54.800Z,11.45
2023-01-15T23:47:22.064Z,10.98
2023-01-15T23:49:49.531Z,12.52
2023-01-15T23:52:32.417Z,10.73
2023-01-15T23:54:59.658Z,11.35
2023-01-15T23:57:26.995Z,11.20
2023-01-15T23:59:54.335Z,13.40
